createdAt,value
2018-06-12T00:01:17.542Z,80.74
2018-06-12T00:03:45.357Z,80.88
2018-06-12T00:06:13.065Z,80.82
2018-06-12T00:08:40.807Z,80.32
2018-06-12T00:11:08.524Z,80.74
2018-06-12T00:13:36.281Z,81.20
2018-06-12T00:16:03.942Z,80.79
2018-06-12T00:18:31.667Z,80.90
2018-06-12T00:20:59.365Z,80.94
2018-06-12T00:23:27.099Z,81.02
2018-06-12T00:25:54.868Z,81.06
2018-06-12T00:28:22.566Z,81.12
2018-06-12T00:30:50.293Z,80.77
2018-06-12T00:33:17.955Z,80.90
2018-06-12T00:35:45.642Z,80.19
2018-06-12T00:38:13.310Z,80.64
2018-06-12T00:40:40.993Z,80.24
2018-06-12T00:43:08.688Z,79.70
2018-06-12T00:45:36.395Z,79.49
2018-06-12T00:48:04.095Z,79.90
2018-06-12T00:50:31.806Z,80.42
2018-06-12T00:52:59.504Z,80.44
2018-06-12T00:55:27.230Z,80.84
2018-06-12T00:57:54.944Z,80.93
2018-06-12T01:00:22.630Z,80.76
2018-06-12T01:02:50.311Z,81.07
2018-06-12T01:05:18.146Z,81.36
2018-06-12T01:07:45.857Z,81.08
2018-06-12T01:10:13.594Z,80.70
2018-06-12T01:12:41.270Z,80.99
2018-06-12T01:15:09.094Z,81.14
2018-06-12T01:17:36.768Z,81.84
2018-06-12T01:20:04.509Z,81.74
2018-06-12T01:22:32.323Z,81.59
2018-06-12T01:25:00.024Z,81.41
2018-06-12T01:27:27.766Z,81.71
2018-06-12T01:29:55.466Z,82.33
2018-06-12T01:32:23.159Z,82.61
2018-06-12T01:34:50.866Z,83.10
2018-06-12T01:37:18.550Z,82.52
2018-06-12T01:39:46.224Z,82.42
2018-06-12T01:42:13.911Z,82.74
2018-06-12T01:44:41.615Z,82.42
2018-06-12T01:47:09.356Z,82.63
2018-06-12T01:49:37.050Z,82.00
2018-06-12T01:52:04.810Z,82.15
2018-06-12T01:54:32.554Z,81.61
2018-06-12T01:57:00.286Z,81.84
2018-06-12T01:59:28.000Z,81.81
2018-06-12T02:01:55.686Z,81.73
2018-06-12T02:04:23.382Z,81.18
2018-06-12T02:06:51.038Z,81.91
2018-06-12T02:09:18.763Z,81.57
2018-06-12T02:11:46.494Z,81.68
2018-06-12T02:14:14.238Z,81.93
2018-06-12T02:16:41.928Z,81.79
2018-06-12T02:19:09.595Z,81.88
2018-06-12T02:21:37.415Z,81.85
2018-06-12T02:24:05.134Z,82.41
2018-06-12T02:26:32.911Z,82.53
2018-06-12T02:29:00.618Z,82.81
2018-06-12T02:31:28.359Z,82.67
2018-06-12T02:33:56.024Z,82.67
2018-06-12T02:36:23.759Z,82.37
2018-06-12T02:38:51.435Z,81.23
2018-06-12T02:41:19.127Z,81.41
2018-06-12T02:43:46.840Z,81.65
2018-06-12T02:46:14.528Z,82.14
2018-06-12T02:48:42.214Z,82.14
2018-06-12T02:51:09.877Z,82.45
2018-06-12T02:53:37.583Z,83.05
2018-06-12T02:56:05.257Z,82.86
2018-06-12T02:58:33.071Z,82.89
2018-06-12T03:01:00.777Z,82.43
2018-06-12T03:03:28.511Z,81.52
2018-06-12T03:05:56.191Z,80.38
2018-06-12T03:08:23.851Z,80.67
2018-06-12T03:10:51.534Z,80.74
2018-06-12T03:13:19.195Z,80.60
2018-06-12T03:15:46.862Z,81.20
2018-06-12T03:18:14.582Z,81.17
2018-06-12T03:20:43.511Z,80.29
2018-06-12T03:23:11.224Z,80.52
2018-06-12T03:25:38.990Z,81.43
2018-06-12T03:28:06.695Z,81.30
2018-06-12T03:30:34.415Z,81.57
2018-06-12T03:33:02.150Z,81.23
2018-06-12T03:35:29.839Z,81.52
2018-06-12T03:37:57.559Z,80.91
2018-06-12T03:40:25.306Z,80.84
2018-06-12T03:42:52.982Z,81.58
2018-06-12T03:45:20.680Z,82.31
2018-06-12T03:47:48.372Z,82.12
2018-06-12T03:50:16.050Z,81.63
2018-06-12T03:52:43.737Z,81.58
2018-06-12T03:55:11.426Z,81.83
2018-06-12T03:57:39.163Z,81.54
2018-06-12T04:00:06.812Z,81.59
2018-06-12T04:02:34.524Z,81.00
2018-06-12T04:05:02.268Z,80.65
2018-06-12T04:07:30.003Z,80.56
2018-06-12T04:09:57.668Z,80.34
2018-06-12T04:12:25.370Z,80.70
2018-06-12T04:14:53.088Z,80.22
2018-06-12T04:17:20.739Z,78.83
2018-06-12T04:19:48.426Z,79.28
2018-06-12T04:22:16.107Z,79.26
2018-06-12T04:24:43.802Z,77.74
2018-06-12T04:27:11.598Z,77.63
2018-06-12T04:29:39.307Z,76.93
2018-06-12T04:32:07.006Z,76.56
2018-06-12T04:34:34.709Z,76.62
2018-06-12T04:37:02.424Z,77.78
2018-06-12T04:39:30.072Z,78.70
2018-06-12T04:41:57.846Z,79.11
2018-06-12T04:44:25.495Z,78.29
2018-06-12T04:46:53.166Z,77.09
2018-06-12T04:49:20.854Z,78.09
2018-06-12T04:51:48.567Z,77.90
2018-06-12T04:54:16.230Z,77.23
2018-06-12T04:56:43.942Z,75.68
2018-06-12T04:59:11.651Z,74.37
2018-06-12T05:01:39.386Z,73.00
2018-06-12T05:04:06.999Z,72.58
2018-06-12T05:06:34.671Z,70.88
2018-06-12T05:09:03.096Z,70.05
2018-06-12T05:11:30.821Z,69.39
2018-06-12T05:13:58.530Z,69.15
2018-06-12T05:16:26.237Z,67.84
2018-06-12T05:18:53.951Z,67.23
2018-06-12T05:21:21.638Z,66.81
2018-06-12T05:23:49.290Z,68.20
2018-06-12T05:26:16.993Z,69.10
2018-06-12T05:28:44.670Z,69.01
2018-06-12T05:31:12.364Z,69.78
2018-06-12T05:33:40.029Z,70.90
2018-06-12T05:36:07.736Z,71.15
2018-06-12T05:38:35.495Z,71.18
2018-06-12T05:41:03.191Z,71.54
2018-06-12T05:43:30.969Z,71.86
2018-06-12T05:45:58.656Z,72.48
2018-06-12T05:48:26.338Z,72.67
2018-06-12T05:50:54.015Z,72.95
2018-06-12T05:53:21.678Z,72.41
2018-06-12T05:55:49.392Z,73.59
2018-06-12T05:58:17.043Z,73.88
2018-06-12T06:00:44.734Z,73.83
2018-06-12T06:03:12.434Z,73.49
2018-06-12T06:05:40.118Z,74.01
2018-06-12T06:08:07.793Z,73.27
2018-06-12T06:10:35.529Z,72.96
2018-06-12T06:13:03.187Z,73.16
2018-06-12T06:15:30.846Z,72.54
2018-06-12T06:17:58.570Z,72.79
2018-06-12T06:20:26.319Z,72.58
2018-06-12T06:22:54.030Z,71.92
2018-06-12T06:25:21.739Z,72.62
2018-06-12T06:27:49.434Z,72.44
2018-06-12T06:30:17.119Z,73.00
2018-06-12T06:32:44.838Z,72.91
2018-06-12T06:35:12.576Z,73.20
2018-06-12T06:37:40.293Z,73.21
2018-06-12T06:40:08.063Z,72.92
2018-06-12T06:42:35.729Z,72.14
2018-06-12T06:45:03.479Z,71.73
2018-06-12T06:47:31.197Z,72.24
2018-06-12T06:49:58.879Z,72.34
2018-06-12T06:52:26.567Z,72.75
2018-06-12T06:54:54.288Z,72.27
2018-06-12T06:57:22.024Z,72.53
2018-06-12T06:59:49.718Z,72.28
2018-06-12T07:02:17.452Z,71.92
2018-06-12T07:04:45.143Z,71.55
2018-06-12T07:07:12.822Z,71.00
2018-06-12T07:09:40.547Z,71.06
2018-06-12T07:12:08.298Z,70.49
2018-06-12T07:14:35.957Z,69.43
2018-06-12T07:17:03.617Z,68.92
2018-06-12T07:19:31.306Z,68.64
2018-06-12T07:21:59.006Z,67.65
2018-06-12T07:24:26.724Z,66.85
2018-06-12T07:26:54.462Z,66.37
2018-06-12T07:29:22.165Z,65.47
2018-06-12T07:31:49.830Z,64.11
2018-06-12T07:34:17.548Z,61.97
2018-06-12T07:36:45.294Z,60.94
2018-06-12T07:39:12.994Z,60.34
2018-06-12T07:41:41.270Z,58.49
2018-06-12T07:44:08.934Z,55.79
2018-06-12T07:46:36.633Z,56.64
2018-06-12T07:49:04.332Z,56.87
2018-06-12T07:51:32.005Z,55.23
2018-06-12T07:53:59.739Z,54.74
2018-06-12T07:56:27.427Z,54.09
2018-06-12T07:58:55.134Z,53.75
2018-06-12T08:01:22.830Z,52.17
2018-06-12T08:03:50.491Z,51.76
2018-06-12T08:06:18.198Z,51.57
2018-06-12T08:08:45.879Z,51.31
2018-06-12T08:11:13.637Z,53.89
2018-06-12T08:13:41.369Z,54.74
2018-06-12T08:16:09.054Z,53.36
2018-06-12T08:18:36.785Z,52.91
2018-06-12T08:21:04.549Z,54.46
2018-06-12T08:23:32.267Z,54.71
2018-06-12T08:26:00.056Z,54.58
2018-06-12T08:28:27.758Z,54.15
2018-06-12T08:30:55.442Z,53.12
2018-06-12T08:33:23.128Z,53.24
2018-06-12T08:35:50.911Z,49.54
2018-06-12T08:38:18.628Z,48.70
2018-06-12T08:40:46.309Z,47.08
2018-06-12T08:43:14.068Z,47.55
2018-06-12T08:45:41.801Z,46.92
2018-06-12T08:48:09.542Z,45.59
2018-06-12T08:50:37.215Z,45.49
2018-06-12T08:53:05.347Z,48.71
2018-06-12T08:55:33.065Z,50.06
2018-06-12T08:58:00.749Z,50.17
2018-06-12T09:00:28.455Z,49.04
2018-06-12T09:02:56.115Z,49.90
2018-06-12T09:05:23.830Z,49.52
2018-06-12T09:07:51.506Z,46.88
2018-06-12T09:10:19.245Z,43.43
2018-06-12T09:12:47.020Z,43.68
2018-06-12T09:15:14.679Z,42.55
2018-06-12T09:17:42.425Z,42.47
2018-06-12T09:20:10.160Z,43.27
2018-06-12T09:22:37.896Z,42.92
2018-06-12T09:25:05.638Z,42.04
2018-06-12T09:27:49.031Z,44.32
2018-06-12T09:30:17.027Z,45.33
2018-06-12T09:32:44.886Z,45.49
2018-06-12T09:35:12.565Z,46.10
2018-06-12T09:37:40.326Z,46.01
2018-06-12T09:40:08.114Z,46.54
2018-06-12T09:42:35.847Z,46.39
2018-06-12T09:45:03.614Z,45.40
2018-06-12T09:47:31.333Z,44.18
2018-06-12T09:49:58.999Z,44.49
2018-06-12T09:52:26.739Z,43.25
2018-06-12T09:54:54.720Z,43.82
2018-06-12T09:57:22.873Z,44.82
2018-06-12T09:59:50.612Z,42.83
2018-06-12T10:02:18.311Z,44.35
2018-06-12T10:04:46.018Z,45.22
2018-06-12T10:07:13.771Z,44.87
2018-06-12T10:09:41.498Z,42.15
2018-06-12T10:12:09.217Z,43.60
2018-06-12T10:14:36.931Z,43.10
2018-06-12T10:17:04.637Z,42.68
2018-06-12T10:19:32.363Z,43.30
2018-06-12T10:22:00.055Z,44.21
2018-06-12T10:24:27.750Z,44.69
2018-06-12T10:26:55.457Z,44.29
2018-06-12T10:29:23.239Z,44.28
2018-06-12T10:31:50.941Z,44.00
2018-06-12T10:34:18.658Z,42.83
2018-06-12T10:36:46.353Z,44.03
2018-06-12T10:39:14.079Z,44.99
2018-06-12T10:41:41.812Z,44.80
2018-06-12T10:44:09.541Z,46.28
2018-06-12T10:46:37.240Z,47.86
2018-06-12T10:49:05.064Z,50.55
2018-06-12T10:51:32.773Z,53.01
2018-06-12T10:54:00.454Z,54.29
2018-06-12T10:56:28.203Z,55.64
2018-06-12T10:58:55.960Z,56.72
2018-06-12T11:01:23.684Z,56.99
2018-06-12T11:03:51.378Z,58.04
2018-06-12T11:06:19.100Z,61.19
2018-06-12T11:08:46.824Z,63.05
2018-06-12T11:11:14.612Z,63.42
2018-06-12T11:13:42.363Z,64.98
2018-06-12T11:16:10.037Z,64.63
2018-06-12T11:18:37.727Z,64.07
2018-06-12T11:21:05.462Z,63.07
2018-06-12T11:23:33.218Z,63.27
2018-06-12T11:26:00.903Z,63.52
2018-06-12T11:28:28.596Z,63.46
2018-06-12T11:30:56.361Z,64.55
2018-06-12T11:33:24.048Z,66.18
2018-06-12T11:35:51.742Z,65.85
2018-06-12T11:38:19.448Z,65.59
2018-06-12T11:40:47.159Z,65.44
2018-06-12T11:43:14.847Z,64.71
2018-06-12T11:45:42.591Z,64.96
2018-06-12T11:48:10.262Z,65.59
2018-06-12T11:50:37.971Z,64.85
2018-06-12T11:53:05.646Z,65.43
2018-06-12T11:55:33.350Z,66.67
2018-06-12T11:58:01.074Z,65.83
2018-06-12T12:00:28.790Z,65.07
2018-06-12T12:02:56.573Z,66.54
2018-06-12T12:05:24.315Z,65.87
2018-06-12T12:07:51.982Z,66.52
2018-06-12T12:10:19.723Z,68.26
2018-06-12T12:12:47.405Z,66.47
2018-06-12T12:15:15.162Z,65.75
2018-06-12T12:17:42.887Z,65.62
2018-06-12T12:20:10.576Z,67.27
2018-06-12T12:22:38.257Z,65.84
2018-06-12T12:25:06.016Z,66.48
2018-06-12T12:27:33.805Z,64.04
2018-06-12T12:30:01.520Z,63.26
2018-06-12T12:32:29.259Z,62.40
2018-06-12T12:34:56.910Z,63.30
2018-06-12T12:37:24.612Z,64.36
2018-06-12T12:39:52.299Z,64.27
2018-06-12T12:42:20.025Z,62.92
2018-06-12T12:44:47.740Z,65.24
2018-06-12T12:47:15.407Z,65.43
2018-06-12T12:49:43.123Z,63.67
2018-06-12T12:52:10.812Z,65.24
2018-06-12T12:54:38.554Z,66.21
2018-06-12T12:57:06.266Z,65.38
2018-06-12T12:59:33.995Z,63.39
2018-06-12T13:02:01.679Z,64.39
2018-06-12T13:04:29.415Z,64.80
2018-06-12T13:06:57.106Z,64.01
2018-06-12T13:09:24.806Z,64.87
2018-06-12T13:11:52.567Z,64.33
2018-06-12T13:14:20.300Z,63.45
2018-06-12T13:16:48.006Z,63.51
2018-06-12T13:19:15.719Z,62.12
2018-06-12T13:21:43.440Z,62.99
2018-06-12T13:24:11.163Z,64.23
2018-06-12T13:26:38.961Z,61.70
2018-06-12T13:29:06.579Z,63.18
2018-06-12T13:31:34.308Z,59.32
2018-06-12T13:34:02.026Z,61.62
2018-06-12T13:36:29.731Z,60.21
2018-06-12T13:38:57.490Z,61.21
2018-06-12T13:41:25.244Z,59.06
2018-06-12T13:43:52.958Z,59.86
2018-06-12T13:46:20.700Z,55.81
2018-06-12T13:48:48.435Z,58.76
2018-06-12T13:51:16.182Z,57.10
2018-06-12T13:53:43.935Z,53.95
2018-06-12T13:56:11.632Z,56.62
2018-06-12T13:58:39.366Z,54.36
2018-06-12T14:01:07.052Z,54.49
2018-06-12T14:03:34.833Z,52.69
2018-06-12T14:06:02.579Z,52.95
2018-06-12T14:08:30.294Z,52.75
2018-06-12T14:10:58.012Z,49.61
2018-06-12T14:13:25.797Z,51.11
2018-06-12T14:15:53.528Z,51.23
2018-06-12T14:18:21.261Z,51.65
2018-06-12T14:20:48.966Z,57.48
2018-06-12T14:23:16.732Z,58.46
2018-06-12T14:25:46.126Z,60.00
2018-06-12T14:28:13.863Z,62.10
2018-06-12T14:30:41.625Z,62.81
2018-06-12T14:33:09.340Z,64.12
2018-06-12T14:35:37.088Z,65.35
2018-06-12T14:38:05.025Z,65.40
2018-06-12T14:40:32.768Z,67.17
2018-06-12T14:43:00.463Z,65.67
2018-06-12T14:45:28.159Z,66.59
2018-06-12T14:47:55.847Z,66.35
2018-06-12T14:50:23.582Z,65.48
2018-06-12T14:52:51.322Z,66.03
2018-06-12T14:55:19.020Z,67.66
2018-06-12T14:57:47.422Z,66.38
2018-06-12T15:00:15.317Z,66.99
2018-06-12T15:02:43.099Z,67.76
2018-06-12T15:05:10.877Z,67.91
2018-06-12T15:07:38.549Z,68.00
2018-06-12T15:10:06.319Z,67.09
2018-06-12T15:12:34.047Z,67.59
2018-06-12T15:15:01.749Z,68.24
2018-06-12T15:17:29.463Z,68.56
2018-06-12T15:19:57.190Z,68.07
2018-06-12T15:22:24.963Z,68.60
2018-06-12T15:24:54.402Z,68.13
2018-06-12T15:27:22.179Z,67.63
2018-06-12T15:29:49.918Z,68.78
2018-06-12T15:32:17.622Z,68.76
2018-06-12T15:34:45.392Z,70.21
2018-06-12T15:37:13.131Z,70.09
2018-06-12T15:39:40.885Z,71.22
2018-06-12T15:42:08.627Z,70.26
2018-06-12T15:44:36.408Z,71.35
2018-06-12T15:47:04.163Z,73.33
2018-06-12T15:49:31.901Z,73.40
2018-06-12T15:51:59.600Z,73.49
2018-06-12T15:54:27.322Z,73.77
2018-06-12T15:56:55.047Z,73.09
2018-06-12T15:59:22.775Z,72.39
2018-06-12T16:01:50.509Z,72.45
2018-06-12T16:04:19.405Z,71.95
2018-06-12T16:06:48.597Z,72.15
2018-06-12T16:09:16.350Z,72.40
2018-06-12T16:11:44.177Z,73.38
2018-06-12T16:14:12.483Z,73.77
2018-06-12T16:16:40.218Z,76.23
2018-06-12T16:19:08.008Z,74.63
2018-06-12T16:21:35.884Z,75.31
2018-06-12T16:24:03.909Z,76.79
2018-06-12T16:26:31.691Z,77.92
2018-06-12T16:28:59.487Z,79.42
2018-06-12T16:31:27.251Z,77.67
2018-06-12T16:33:55.031Z,79.02
2018-06-12T16:36:22.833Z,79.06
2018-06-12T16:38:50.629Z,78.76
2018-06-12T16:41:18.342Z,78.84
2018-06-12T16:43:46.115Z,79.78
2018-06-12T16:46:13.851Z,79.64
2018-06-12T16:48:41.607Z,79.12
2018-06-12T16:51:09.370Z,79.75
2018-06-12T16:53:37.131Z,79.56
2018-06-12T16:56:04.956Z,78.34
2018-06-12T16:58:32.695Z,79.40
2018-06-12T17:01:00.482Z,79.29
2018-06-12T17:03:28.280Z,78.80
2018-06-12T17:05:56.070Z,78.92
2018-06-12T17:08:23.840Z,78.43
2018-06-12T17:10:51.592Z,78.89
2018-06-12T17:13:19.473Z,79.67
2018-06-12T17:15:47.223Z,78.84
2018-06-12T17:18:14.945Z,79.14
2018-06-12T17:20:42.659Z,79.82
2018-06-12T17:23:10.367Z,79.36
2018-06-12T17:25:39.074Z,80.00
2018-06-12T17:28:06.884Z,80.32
2018-06-12T17:30:34.574Z,80.81
2018-06-12T17:33:02.331Z,79.93
2018-06-12T17:35:30.059Z,79.97
2018-06-12T17:37:57.770Z,79.04
2018-06-12T17:40:25.521Z,79.03
2018-06-12T17:42:53.290Z,78.00
2018-06-12T17:45:21.061Z,78.16
2018-06-12T17:47:48.835Z,78.16
2018-06-12T17:50:16.612Z,78.67
2018-06-12T17:52:44.402Z,79.26
2018-06-12T17:55:12.168Z,80.41
2018-06-12T17:57:39.936Z,80.53
2018-06-12T18:00:07.735Z,79.50
2018-06-12T18:02:35.529Z,78.40
2018-06-12T18:05:03.344Z,78.16
2018-06-12T18:07:31.163Z,77.84
2018-06-12T18:09:58.894Z,78.34
2018-06-12T18:12:26.654Z,79.55
2018-06-12T18:14:54.444Z,78.46
2018-06-12T18:17:22.222Z,78.67
2018-06-12T18:19:55.487Z,78.42
2018-06-12T18:22:23.280Z,79.15
2018-06-12T18:24:51.194Z,79.22
2018-06-12T18:27:18.825Z,78.38
2018-06-12T18:29:46.548Z,79.07
2018-06-12T18:32:14.288Z,78.18
2018-06-12T18:34:42.039Z,78.31
2018-06-12T18:37:09.831Z,78.61
2018-06-12T18:39:37.640Z,79.82
2018-06-12T18:42:05.411Z,79.84
2018-06-12T18:44:33.181Z,80.55
2018-06-12T18:47:01.012Z,79.41
2018-06-12T18:49:28.794Z,79.09
2018-06-12T18:51:56.544Z,79.14
2018-06-12T18:54:24.342Z,77.43
2018-06-12T18:56:52.169Z,78.60
2018-06-12T18:59:19.954Z,78.77
2018-06-12T19:01:47.706Z,79.49
2018-06-12T19:04:15.486Z,79.90
2018-06-12T19:06:43.303Z,80.34
2018-06-12T19:09:11.036Z,79.86
2018-06-12T19:11:38.780Z,79.48
2018-06-12T19:14:06.507Z,80.42
2018-06-12T19:16:34.322Z,80.20
2018-06-12T19:19:02.064Z,79.82
2018-06-12T19:21:30.190Z,79.52
2018-06-12T19:23:57.915Z,79.40
2018-06-12T19:26:25.704Z,79.66
2018-06-12T19:28:53.472Z,79.64
2018-06-12T19:31:21.312Z,79.71
2018-06-12T19:33:49.197Z,79.64
2018-06-12T19:36:16.994Z,79.26
2018-06-12T19:38:44.762Z,79.08
2018-06-12T19:41:12.500Z,79.21
2018-06-12T19:43:40.294Z,78.51
2018-06-12T19:46:08.023Z,78.15
2018-06-12T19:48:35.787Z,78.90
2018-06-12T19:51:03.502Z,80.00
2018-06-12T19:53:31.220Z,79.32
2018-06-12T19:55:58.966Z,80.25
2018-06-12T19:58:26.711Z,80.34
2018-06-12T20:00:54.451Z,80.55
2018-06-12T20:03:22.223Z,80.20
2018-06-12T20:05:49.963Z,80.86
2018-06-12T20:08:17.736Z,80.99
2018-06-12T20:10:45.476Z,81.16
2018-06-12T20:13:13.233Z,81.92
2018-06-12T20:15:41.131Z,81.80
2018-06-12T20:18:08.885Z,81.91
2018-06-12T20:20:36.622Z,81.76
2018-06-12T20:23:04.410Z,80.69
2018-06-12T20:25:32.110Z,80.20
2018-06-12T20:27:59.947Z,80.11
2018-06-12T20:30:27.677Z,80.71
2018-06-12T20:32:55.444Z,81.55
2018-06-12T20:35:23.235Z,81.30
2018-06-12T20:37:51.359Z,82.06
2018-06-12T20:40:19.112Z,82.52
2018-06-12T20:42:46.916Z,83.42
2018-06-12T20:45:14.668Z,83.25
2018-06-12T20:47:42.461Z,83.17
2018-06-12T20:50:10.202Z,83.58
2018-06-12T20:52:37.917Z,83.73
2018-06-12T20:55:05.636Z,84.00
2018-06-12T20:57:33.386Z,84.84
2018-06-12T21:00:01.104Z,84.25
2018-06-12T21:02:28.834Z,84.72
2018-06-12T21:04:56.542Z,84.89
2018-06-12T21:07:24.301Z,85.72
2018-06-12T21:09:52.046Z,86.11
2018-06-12T21:12:19.774Z,85.58
2018-06-12T21:14:47.455Z,86.66
2018-06-12T21:17:15.167Z,86.15
2018-06-12T21:19:42.855Z,85.30
2018-06-12T21:22:10.592Z,85.97
2018-06-12T21:24:38.265Z,86.15
2018-06-12T21:27:06.061Z,86.82
2018-06-12T21:29:33.770Z,86.63
2018-06-12T21:32:01.450Z,86.98
2018-06-12T21:34:29.215Z,87.01
2018-06-12T21:36:56.957Z,87.24
2018-06-12T21:39:24.670Z,86.70
2018-06-12T21:41:52.341Z,86.68
2018-06-12T21:44:20.059Z,86.54
2018-06-12T21:46:47.770Z,86.62
2018-06-12T21:49:15.532Z,86.79
2018-06-12T21:51:43.190Z,87.14
2018-06-12T21:54:10.901Z,86.99
2018-06-12T21:56:38.618Z,86.77
2018-06-12T21:59:06.278Z,87.15
2018-06-12T22:01:34.007Z,87.21
2018-06-12T22:04:01.803Z,87.17
2018-06-12T22:06:29.572Z,86.85
2018-06-12T22:08:57.337Z,87.33
2018-06-12T22:11:25.061Z,87.61
2018-06-12T22:13:52.839Z,87.58
2018-06-12T22:16:20.525Z,87.63
2018-06-12T22:18:48.256Z,87.64
2018-06-12T22:21:15.966Z,88.29
2018-06-12T22:23:43.667Z,87.65
2018-06-12T22:26:11.362Z,87.89
2018-06-12T22:28:39.036Z,88.06
2018-06-12T22:31:06.769Z,88.54
2018-06-12T22:33:34.436Z,88.42
2018-06-12T22:36:02.113Z,88.30
2018-06-12T22:38:29.800Z,88.52
2018-06-12T22:40:57.516Z,88.49
2018-06-12T22:43:25.206Z,88.29
2018-06-12T22:45:52.897Z,87.89
2018-06-12T22:48:20.610Z,87.77
2018-06-12T22:50:48.309Z,88.22
2018-06-12T22:53:16.018Z,88.30
2018-06-12T22:55:43.653Z,87.85
2018-06-12T22:58:11.323Z,87.93
2018-06-12T23:00:38.984Z,88.04
2018-06-12T23:03:06.637Z,87.95
2018-06-12T23:05:34.304Z,88.04
2018-06-12T23:08:01.993Z,88.10
2018-06-12T23:10:29.724Z,88.05
2018-06-12T23:12:57.422Z,88.18
2018-06-12T23:15:25.134Z,88.03
2018-06-12T23:17:52.819Z,88.27
2018-06-12T23:20:26.174Z,88.56
2018-06-12T23:22:53.957Z,88.45
2018-06-12T23:25:21.642Z,88.55
2018-06-12T23:27:49.268Z,88.67
2018-06-12T23:30:16.887Z,88.20
2018-06-12T23:32:44.573Z,88.15
2018-06-12T23:35:12.230Z,87.66
2018-06-12T23:37:39.876Z,87.67
2018-06-12T23:40:07.509Z,88.12
2018-06-12T23:42:35.199Z,87.97
2018-06-12T23:45:02.908Z,87.82
2018-06-12T23:47:30.590Z,88.07
2018-06-12T23:49:58.338Z,87.99
2018-06-12T23:52:26.019Z,87.48
2018-06-12T23:54:53.658Z,87.50
2018-06-12T23:57:21.382Z,87.44
2018-06-12T23:59:49.023Z,87.29
